Time;durP1;ratioP1;P1;durP2;ratioP2;P2;SDS_P1;SDS_P2;PMS_P1;PMS_P2;Temp;Humidity;BMP_temperature;BMP_pressure;BME280_temperature;BME280_humidity;BME280_pressure;Samples;Min_cycle;Max_cycle;Signal;HPM_P1;HPM_P2
2021/10/15 00:02:16;;;;;;;11.12;2.78;;;;;;;;;;4377502;32;20078;-65
2021/10/15 00:04:42;;;;;;;11.23;3.42;;;;;;;;;;4391913;32;20074;-65
2021/10/15 00:07:09;;;;;;;8.80;2.67;;;;;;;;;;4352859;32;20057;-65
2021/10/15 00:09:35;;;;;;;5.40;2.50;;;;;;;;;;4352422;32;20586;-66
2021/10/15 00:12:02;;;;;;;8.57;3.58;;;;;;;;;;4364918;32;20181;-65
2021/10/15 00:14:29;;;;;;;7.30;2.58;;;;;;;;;;4364712;32;20078;-66
2021/10/15 00:16:55;;;;;;;10.80;3.42;;;;;;;;;;4365181;32;20109;-65
2021/10/15 00:19:22;;;;;;;11.80;3.12;;;;;;;;;;4352741;32;20077;-65
2021/10/15 00:21:48;;;;;;;6.28;2.67;;;;;;;;;;4352699;32;20174;-65
2021/10/15 00:24:15;;;;;;;10.50;3.22;;;;;;;;;;4365166;32;20178;-66
2021/10/15 00:26:41;;;;;;;8.85;3.50;;;;;;;;;;4364963;32;20177;-66
2021/10/15 00:29:09;;;;;;;8.80;3.30;;;;;;;;;;4352330;32;20579;-66
2021/10/15 00:31:49;;;;;;;6.78;3.20;;;;;;;;;;3812556;37;20059;-65
2021/10/15 00:34:15;;;;;;;7.70;2.80;;;;;;;;;;4378187;32;20093;-66
2021/10/15 00:36:42;;;;;;;6.40;2.80;;;;;;;;;;4352937;32;20609;-65
2021/10/15 00:39:09;;;;;;;12.82;3.95;;;;;;;;;;4378172;32;20199;-65
2021/10/15 00:41:35;;;;;;;7.53;2.92;;;;;;;;;;4378075;32;20078;-65
2021/10/15 00:44:04;;;;;;;7.18;3.10;;;;;;;;;;4404890;32;20077;-66
2021/10/15 00:46:31;;;;;;;10.57;3.17;;;;;;;;;;4390138;32;20077;-66
2021/10/15 00:48:57;;;;;;;8.77;3.12;;;;;;;;;;4353120;32;20111;-65
2021/10/15 00:51:25;;;;;;;13.13;3.03;;;;;;;;;;4378019;32;20539;-64
2021/10/15 00:53:52;;;;;;;8.55;3.22;;;;;;;;;;4353276;32;20076;-65
2021/10/15 00:56:18;;;;;;;11.23;3.55;;;;;;;;;;4365337;32;20436;-65
2021/10/15 00:58:45;;;;;;;4.60;2.55;;;;;;;;;;4365571;32;20092;-65
2021/10/15 01:01:11;;;;;;;7.28;3.05;;;;;;;;;;4365769;32;20178;-65
2021/10/15 01:03:38;;;;;;;8.57;3.40;;;;;;;;;;4365191;32;20178;-65
2021/10/15 01:06:05;;;;;;;9.30;3.20;;;;;;;;;;4377698;32;20066;-65
2021/10/15 01:08:33;;;;;;;9.05;3.17;;;;;;;;;;4377408;32;20177;-65
2021/10/15 01:11:00;;;;;;;5.93;3.17;;;;;;;;;;4365727;32;20165;-65
2021/10/15 01:13:27;;;;;;;6.93;3.25;;;;;;;;;;4352780;32;20086;-66
2021/10/15 01:16:04;;;;;;;8.77;3.37;;;;;;;;;;4365484;32;20088;-65
2021/10/15 01:18:31;;;;;;;13.23;4.22;;;;;;;;;;4378366;32;20081;-65
2021/10/15 01:20:57;;;;;;;8.50;3.33;;;;;;;;;;4377542;32;20495;-66
2021/10/15 01:23:24;;;;;;;6.80;3.20;;;;;;;;;;4377762;32;20078;-65
2021/10/15 01:25:54;;;;;;;10.45;3.30;;;;;;;;;;4365249;32;20100;-66
2021/10/15 01:28:22;;;;;;;10.07;3.55;;;;;;;;;;4365151;32;20074;-66
2021/10/15 01:30:48;;;;;;;8.45;3.00;;;;;;;;;;4365186;32;20089;-66
2021/10/15 01:33:15;;;;;;;6.60;3.30;;;;;;;;;;4389882;32;20076;-65
2021/10/15 01:35:42;;;;;;;7.62;3.30;;;;;;;;;;4364863;32;20447;-66
2021/10/15 01:38:08;;;;;;;8.32;3.53;;;;;;;;;;4377370;32;20057;-65
2021/10/15 01:40:35;;;;;;;7.78;3.28;;;;;;;;;;4389851;32;20097;-65
2021/10/15 01:43:01;;;;;;;9.82;3.78;;;;;;;;;;4380331;32;20085;-65
2021/10/15 01:45:29;;;;;;;11.77;3.75;;;;;;;;;;4379620;32;20081;-66
2021/10/15 01:47:56;;;;;;;10.65;3.90;;;;;;;;;;4342786;32;20084;-66
2021/10/15 01:50:23;;;;;;;9.55;3.75;;;;;;;;;;4367349;32;20077;-64
2021/10/15 01:52:50;;;;;;;9.25;3.45;;;;;;;;;;4342820;32;20082;-65
2021/10/15 01:55:17;;;;;;;8.98;4.03;;;;;;;;;;4342376;32;20576;-65
2021/10/15 01:57:44;;;;;;;11.02;3.83;;;;;;;;;;4371510;32;20066;-64
2021/10/15 02:00:12;;;;;;;10.35;3.75;;;;;;;;;;4356188;32;20164;-64
2021/10/15 02:02:39;;;;;;;13.43;3.80;;;;;;;;;;4354728;32;20093;-66
2021/10/15 02:05:07;;;;;;;8.68;3.60;;;;;;;;;;4393544;32;20185;-66
2021/10/15 02:07:33;;;;;;;7.93;3.40;;;;;;;;;;4354404;32;20149;-64
2021/10/15 02:10:00;;;;;;;10.82;3.78;;;;;;;;;;4366527;32;20088;-64
2021/10/15 02:12:26;;;;;;;10.15;4.37;;;;;;;;;;4354659;32;20084;-65
2021/10/15 02:14:53;;;;;;;9.52;4.05;;;;;;;;;;4367031;32;20085;-64
2021/10/15 02:17:19;;;;;;;8.93;3.70;;;;;;;;;;4367178;32;20488;-66
2021/10/15 02:19:46;;;;;;;11.07;3.85;;;;;;;;;;4366867;32;20074;-65
2021/10/15 02:22:12;;;;;;;8.45;4.00;;;;;;;;;;4379141;32;20164;-65
2021/10/15 02:24:39;;;;;;;6.60;3.17;;;;;;;;;;4366904;32;20073;-65
2021/10/15 02:27:05;;;;;;;7.07;3.17;;;;;;;;;;4379041;32;20137;-66
2021/10/15 02:29:32;;;;;;;10.73;3.78;;;;;;;;;;4341610;32;20094;-65
2021/10/15 02:31:58;;;;;;;9.35;3.47;;;;;;;;;;4366151;32;20441;-65
2021/10/15 02:34:25;;;;;;;13.95;3.97;;;;;;;;;;4366500;32;20080;-66
2021/10/15 02:36:51;;;;;;;11.70;3.53;;;;;;;;;;4366467;32;20460;-66
2021/10/15 02:39:18;;;;;;;8.55;3.37;;;;;;;;;;4341571;32;20129;-66
2021/10/15 02:41:45;;;;;;;6.70;3.42;;;;;;;;;;4341291;32;20074;-66
2021/10/15 02:44:13;;;;;;;9.98;4.03;;;;;;;;;;4366633;32;20435;-65
2021/10/15 02:46:39;;;;;;;7.87;3.33;;;;;;;;;;4366104;32;20548;-65
2021/10/15 02:49:06;;;;;;;7.80;3.83;;;;;;;;;;4353763;32;20607;-65
2021/10/15 02:51:33;;;;;;;11.27;4.00;;;;;;;;;;4366360;32;20109;-66
2021/10/15 02:53:59;;;;;;;12.68;3.62;;;;;;;;;;4377703;32;20665;-65
2021/10/15 02:56:26;;;;;;;11.73;4.05;;;;;;;;;;4366195;32;20159;-66
2021/10/15 02:58:52;;;;;;;10.00;4.72;;;;;;;;;;4378288;32;20079;-65
2021/10/15 03:01:19;;;;;;;12.02;3.90;;;;;;;;;;4354444;32;20073;-66
2021/10/15 03:03:45;;;;;;;12.98;4.00;;;;;;;;;;4366455;32;20082;-64
2021/10/15 03:06:12;;;;;;;12.40;3.75;;;;;;;;;;4353735;32;20242;-65
2021/10/15 03:08:38;;;;;;;8.70;3.90;;;;;;;;;;4365822;32;20092;-66
2021/10/15 03:11:05;;;;;;;7.72;3.85;;;;;;;;;;4366113;32;20463;-65
2021/10/15 03:13:32;;;;;;;8.60;3.70;;;;;;;;;;4340790;32;20101;-65
2021/10/15 03:15:58;;;;;;;11.05;4.05;;;;;;;;;;4366379;32;20092;-66
2021/10/15 03:18:25;;;;;;;11.55;4.00;;;;;;;;;;4354007;32;20072;-64
2021/10/15 03:20:52;;;;;;;7.22;3.58;;;;;;;;;;4341115;32;20153;-66
2021/10/15 03:23:19;;;;;;;8.02;3.90;;;;;;;;;;4365975;32;20089;-66
2021/10/15 03:25:46;;;;;;;9.27;3.47;;;;;;;;;;4353586;32;20519;-66
2021/10/15 03:28:12;;;;;;;8.95;3.80;;;;;;;;;;4378432;32;20063;-66
2021/10/15 03:30:39;;;;;;;13.38;3.90;;;;;;;;;;4353074;32;20085;-65
2021/10/15 03:33:06;;;;;;;8.90;3.97;;;;;;;;;;4340603;32;20081;-65
2021/10/15 03:35:33;;;;;;;7.68;3.67;;;;;;;;;;4365362;32;20086;-65
2021/10/15 03:37:59;;;;;;;8.65;3.55;;;;;;;;;;4377654;32;20068;-66
2021/10/15 03:40:26;;;;;;;13.13;4.40;;;;;;;;;;4365167;32;20528;-65
2021/10/15 03:42:53;;;;;;;8.40;3.83;;;;;;;;;;4353315;32;20532;-66
2021/10/15 03:45:19;;;;;;;11.65;4.10;;;;;;;;;;4353446;32;20077;-65
2021/10/15 03:47:46;;;;;;;13.23;4.05;;;;;;;;;;4365062;32;20086;-65
2021/10/15 03:50:12;;;;;;;11.07;3.65;;;;;;;;;;4365623;32;20082;-65
2021/10/15 03:52:39;;;;;;;15.30;4.28;;;;;;;;;;4391882;32;20493;-65
2021/10/15 03:55:10;;;;;;;7.40;3.60;;;;;;;;;;4378218;32;20449;-66
2021/10/15 03:57:37;;;;;;;11.65;4.10;;;;;;;;;;4353728;32;20106;-67
2021/10/15 04:00:10;;;;;;;8.20;4.18;;;;;;;;;;4353420;32;20508;-65
2021/10/15 04:02:38;;;;;;;10.25;4.25;;;;;;;;;;4365266;32;20081;-66
2021/10/15 04:05:06;;;;;;;10.23;4.28;;;;;;;;;;4353526;32;20093;-65
2021/10/15 04:07:34;;;;;;;12.25;4.87;;;;;;;;;;4353840;32;20077;-68
2021/10/15 04:10:00;;;;;;;8.85;4.25;;;;;;;;;;4365230;32;20537;-67
2021/10/15 04:12:27;;;;;;;9.55;4.55;;;;;;;;;;4340444;32;20090;-66
2021/10/15 04:14:53;;;;;;;9.63;4.20;;;;;;;;;;4365324;32;20081;-66
2021/10/15 04:17:20;;;;;;;9.15;4.20;;;;;;;;;;4377655;32;20078;-66
2021/10/15 04:19:46;;;;;;;11.63;4.30;;;;;;;;;;4353104;32;20074;-66
2021/10/15 04:22:13;;;;;;;7.03;4.18;;;;;;;;;;4365000;32;20098;-67
2021/10/15 04:24:40;;;;;;;10.55;4.03;;;;;;;;;;4365198;32;20077;-65
2021/10/15 04:27:06;;;;;;;8.68;4.18;;;;;;;;;;4352909;32;20078;-65
2021/10/15 04:29:33;;;;;;;10.45;4.75;;;;;;;;;;4364485;32;20081;-65
2021/10/15 04:32:00;;;;;;;8.70;4.12;;;;;;;;;;4352570;32;20080;-65
2021/10/15 04:34:26;;;;;;;10.48;4.62;;;;;;;;;;4378056;32;20092;-65
2021/10/15 04:36:53;;;;;;;7.35;4.00;;;;;;;;;;4354304;32;20090;-65
2021/10/15 04:39:19;;;;;;;9.82;4.65;;;;;;;;;;4340506;32;20084;-65
2021/10/15 04:41:46;;;;;;;12.18;4.30;;;;;;;;;;4353092;32;20081;-66
2021/10/15 04:44:13;;;;;;;10.30;4.55;;;;;;;;;;4365018;32;20096;-65
2021/10/15 04:46:40;;;;;;;7.30;3.70;;;;;;;;;;4353350;32;20085;-66
2021/10/15 04:49:07;;;;;;;8.35;4.47;;;;;;;;;;4352652;32;20063;-66
2021/10/15 04:51:33;;;;;;;7.68;4.85;;;;;;;;;;4352506;32;20101;-65
2021/10/15 04:54:00;;;;;;;11.30;4.65;;;;;;;;;;4340125;32;20070;-65
2021/10/15 04:56:27;;;;;;;8.05;4.15;;;;;;;;;;4352766;32;20493;-66
2021/10/15 04:58:53;;;;;;;6.53;4.65;;;;;;;;;;4377492;32;20543;-66
2021/10/15 05:01:20;;;;;;;8.27;4.68;;;;;;;;;;4364785;32;20177;-66
2021/10/15 05:03:46;;;;;;;9.55;4.53;;;;;;;;;;4379365;32;20070;-65
2021/10/15 05:06:12;;;;;;;7.50;4.05;;;;;;;;;;4367069;32;20118;-65
2021/10/15 05:08:49;;;;;;;10.57;4.87;;;;;;;;;;4352837;32;20093;-65
2021/10/15 05:11:15;;;;;;;8.27;4.15;;;;;;;;;;4391076;32;20081;-64
2021/10/15 05:13:42;;;;;;;8.43;4.25;;;;;;;;;;4352526;32;20152;-66
2021/10/15 05:16:08;;;;;;;8.90;4.62;;;;;;;;;;4365034;32;20451;-65
2021/10/15 05:18:35;;;;;;;8.45;4.90;;;;;;;;;;4367562;32;20096;-66
2021/10/15 05:21:01;;;;;;;10.50;4.62;;;;;;;;;;4367623;32;20082;-66
2021/10/15 05:23:28;;;;;;;10.85;4.85;;;;;;;;;;4367542;32;20087;-66
2021/10/15 05:25:54;;;;;;;12.20;4.60;;;;;;;;;;4354980;32;20581;-65
2021/10/15 05:28:21;;;;;;;9.75;4.32;;;;;;;;;;4367618;32;20513;-64
2021/10/15 05:30:47;;;;;;;12.52;5.20;;;;;;;;;;4367167;32;20097;-65
2021/10/15 05:33:14;;;;;;;12.77;5.18;;;;;;;;;;4342794;32;20093;-65
2021/10/15 05:35:40;;;;;;;9.95;4.82;;;;;;;;;;4367698;32;20082;-66
2021/10/15 05:38:07;;;;;;;9.60;4.25;;;;;;;;;;4393706;32;20092;-64
2021/10/15 05:40:33;;;;;;;10.40;5.07;;;;;;;;;;4379633;32;20089;-65
2021/10/15 05:43:00;;;;;;;10.85;5.03;;;;;;;;;;4354979;32;20066;-67
2021/10/15 05:45:27;;;;;;;8.77;4.43;;;;;;;;;;4367192;32;20073;-65
2021/10/15 05:47:53;;;;;;;9.35;4.95;;;;;;;;;;4354766;32;20504;-64
2021/10/15 05:50:20;;;;;;;10.07;5.10;;;;;;;;;;4367773;32;20077;-65
2021/10/15 05:52:49;;;;;;;9.77;4.68;;;;;;;;;;4366828;32;20100;-66
2021/10/15 06:00:25;;;;;;;9.10;4.85;;;;;;;;;;4381264;32;20062;-65
2021/10/15 06:02:51;;;;;;;7.57;4.22;;;;;;;;;;4342243;32;20085;-65
2021/10/15 06:16:06;;;;;;;6.18;3.97;;;;;;;;;;4358426;32;20099;-68
2021/10/15 06:18:38;;;;;;;7.80;4.37;;;;;;;;;;4342973;32;20101;-66
2021/10/15 06:21:05;;;;;;;6.68;4.32;;;;;;;;;;4367027;32;20070;-65
2021/10/15 06:23:33;;;;;;;8.82;4.10;;;;;;;;;;4354585;32;20170;-66
2021/10/15 06:26:00;;;;;;;6.93;4.07;;;;;;;;;;4367112;32;20093;-66
2021/10/15 06:28:27;;;;;;;7.53;4.10;;;;;;;;;;4354252;32;20531;-65
2021/10/15 06:30:54;;;;;;;8.65;3.85;;;;;;;;;;4366520;32;20082;-66
2021/10/15 06:33:20;;;;;;;8.30;4.20;;;;;;;;;;4366818;32;20061;-67
2021/10/15 06:35:47;;;;;;;7.82;4.00;;;;;;;;;;4366407;32;20082;-66
2021/10/15 06:38:14;;;;;;;7.62;4.12;;;;;;;;;;4354009;32;20529;-66
2021/10/15 06:40:40;;;;;;;7.10;4.10;;;;;;;;;;4380924;32;20085;-64
2021/10/15 06:43:07;;;;;;;8.63;4.10;;;;;;;;;;4359268;32;20073;-66
2021/10/15 06:45:35;;;;;;;5.50;3.53;;;;;;;;;;4342571;32;20073;-66
2021/10/15 06:48:01;;;;;;;7.10;4.18;;;;;;;;;;4342159;32;20096;-65
2021/10/15 06:50:28;;;;;;;6.12;3.50;;;;;;;;;;4341885;32;20092;-66
2021/10/15 06:52:55;;;;;;;5.07;3.30;;;;;;;;;;4366264;32;20469;-64
2021/10/15 06:55:22;;;;;;;7.35;3.70;;;;;;;;;;4353880;32;20519;-65
2021/10/15 06:57:49;;;;;;;7.80;3.60;;;;;;;;;;4341695;32;20156;-66
2021/10/15 07:00:16;;;;;;;7.85;3.60;;;;;;;;;;4379414;32;20081;-66
2021/10/15 07:02:43;;;;;;;2.80;1.92;;;;;;;;;;4366054;32;20174;-66
2021/10/15 07:05:10;;;;;;;5.03;2.92;;;;;;;;;;4366384;32;20093;-65
2021/10/15 07:07:37;;;;;;;5.53;2.50;;;;;;;;;;4354867;32;20100;-66
2021/10/15 07:10:05;;;;;;;5.45;2.40;;;;;;;;;;4355910;32;20062;-67
2021/10/15 07:12:39;;;;;;;6.57;2.90;;;;;;;;;;4368404;32;20085;-66
2021/10/15 07:15:06;;;;;;;7.60;2.10;;;;;;;;;;4368118;32;20108;-67
2021/10/15 07:17:33;;;;;;;3.67;2.05;;;;;;;;;;4359157;32;20104;-66
2021/10/15 07:20:00;;;;;;;7.85;2.25;;;;;;;;;;4360557;32;20111;-64
2021/10/15 07:22:26;;;;;;;3.90;1.70;;;;;;;;;;4360784;32;20168;-65
2021/10/15 07:24:53;;;;;;;5.93;1.95;;;;;;;;;;4360084;32;20090;-65
2021/10/15 07:27:19;;;;;;;2.58;1.85;;;;;;;;;;4373049;32;20084;-65
2021/10/15 07:29:46;;;;;;;4.53;1.90;;;;;;;;;;4359602;32;20081;-67
2021/10/15 07:32:13;;;;;;;2.28;1.85;;;;;;;;;;4372250;32;20711;-65
2021/10/15 07:34:39;;;;;;;2.28;1.77;;;;;;;;;;4372659;32;20070;-66
2021/10/15 07:37:06;;;;;;;3.22;1.77;;;;;;;;;;4360378;32;20077;-67
2021/10/15 07:39:33;;;;;;;4.47;2.10;;;;;;;;;;4347296;32;20081;-66
2021/10/15 07:42:00;;;;;;;3.05;1.80;;;;;;;;;;4372070;32;20085;-65
2021/10/15 07:44:26;;;;;;;6.07;1.92;;;;;;;;;;4372043;32;20090;-66
2021/10/15 07:46:53;;;;;;;4.80;2.00;;;;;;;;;;4371573;32;20178;-66
2021/10/15 07:49:20;;;;;;;4.03;2.03;;;;;;;;;;4367181;32;20165;-67
2021/10/15 07:51:47;;;;;;;4.72;1.60;;;;;;;;;;4366015;32;20049;-66
2021/10/15 07:54:13;;;;;;;3.37;1.65;;;;;;;;;;4378155;32;20169;-67
2021/10/15 07:56:40;;;;;;;7.37;1.95;;;;;;;;;;4391594;32;20081;-65
2021/10/15 07:59:07;;;;;;;5.35;1.92;;;;;;;;;;4365675;32;20504;-66
2021/10/15 08:01:33;;;;;;;2.12;1.40;;;;;;;;;;4379335;32;20089;-65
2021/10/15 08:04:00;;;;;;;1.62;1.30;;;;;;;;;;4353656;32;20097;-66
2021/10/15 08:06:27;;;;;;;8.35;1.40;;;;;;;;;;4353586;32;20581;-66
2021/10/15 08:08:53;;;;;;;1.50;1.23;;;;;;;;;;4353154;32;20088;-65
2021/10/15 08:11:20;;;;;;;3.00;1.40;;;;;;;;;;4378131;32;20082;-66
2021/10/15 08:13:46;;;;;;;3.83;1.48;;;;;;;;;;4354126;32;20072;-65
2021/10/15 08:16:13;;;;;;;1.70;1.50;;;;;;;;;;4379116;32;20086;-66
2021/10/15 08:18:40;;;;;;;2.72;1.45;;;;;;;;;;4368008;32;20094;-65
2021/10/15 08:21:06;;;;;;;5.70;2.03;;;;;;;;;;4354190;32;20065;-67
2021/10/15 08:23:33;;;;;;;2.45;1.87;;;;;;;;;;4378235;32;20170;-64
2021/10/15 08:25:59;;;;;;;2.05;1.23;;;;;;;;;;4365627;32;20069;-65
2021/10/15 08:28:26;;;;;;;2.92;1.37;;;;;;;;;;4365097;32;20074;-65
2021/10/15 08:30:53;;;;;;;1.40;1.30;;;;;;;;;;4376914;32;20081;-65
2021/10/15 08:33:19;;;;;;;1.75;1.30;;;;;;;;;;4365156;32;20069;-65
2021/10/15 08:35:46;;;;;;;4.75;1.35;;;;;;;;;;4365181;32;20149;-66
2021/10/15 08:38:13;;;;;;;2.85;1.60;;;;;;;;;;4377403;32;20078;-66
2021/10/15 08:40:40;;;;;;;1.90;1.40;;;;;;;;;;4365059;32;20088;-65
2021/10/15 08:43:06;;;;;;;1.58;1.33;;;;;;;;;;4365354;32;20070;-66
2021/10/15 08:45:36;;;;;;;2.42;1.45;;;;;;;;;;4365316;32;20149;-66
2021/10/15 08:48:03;;;;;;;2.20;1.60;;;;;;;;;;4365493;32;20451;-65
2021/10/15 08:50:30;;;;;;;2.30;1.60;;;;;;;;;;4352605;32;20162;-66
2021/10/15 08:52:57;;;;;;;2.30;1.50;;;;;;;;;;4354933;32;20066;-66
2021/10/15 08:55:24;;;;;;;1.70;1.20;;;;;;;;;;4355598;32;20071;-66
2021/10/15 08:57:55;;;;;;;1.52;1.40;;;;;;;;;;4380585;32;20057;-65
2021/10/15 09:00:25;;;;;;;3.10;1.45;;;;;;;;;;4367668;32;20468;-65
2021/10/15 09:03:20;;;;;;;1.65;1.35;;;;;;;;;;4368167;32;20081;-66
2021/10/15 09:06:00;;;;;;;2.53;1.48;;;;;;;;;;4379884;32;20077;-65
2021/10/15 09:08:54;;;;;;;3.15;1.50;;;;;;;;;;4355483;32;20071;-66
2021/10/15 09:11:28;;;;;;;3.12;1.20;;;;;;;;;;4367526;32;20588;-66
2021/10/15 09:14:10;;;;;;;2.62;1.60;;;;;;;;;;4355372;32;20089;-66
2021/10/15 09:16:53;;;;;;;1.48;1.33;;;;;;;;;;4381303;32;20508;-66
2021/10/15 09:19:27;;;;;;;3.92;1.77;;;;;;;;;;4367900;32;20532;-66
2021/10/15 09:22:18;;;;;;;2.80;1.48;;;;;;;;;;4367665;32;20085;-66
2021/10/15 09:24:56;;;;;;;2.05;1.60;;;;;;;;;;4380061;32;20148;-66
2021/10/15 09:27:29;;;;;;;1.92;1.55;;;;;;;;;;4343558;32;20556;-66
2021/10/15 09:30:01;;;;;;;2.95;1.50;;;;;;;;;;4342543;32;20086;-66
2021/10/15 09:32:30;;;;;;;2.47;1.92;;;;;;;;;;4355507;32;20503;-65
2021/10/15 09:34:58;;;;;;;2.97;1.50;;;;;;;;;;4367481;32;20124;-66
2021/10/15 09:37:29;;;;;;;2.53;1.65;;;;;;;;;;4343063;32;20467;-66
2021/10/15 09:40:04;;;;;;;2.85;1.35;;;;;;;;;;4355208;32;20089;-66
2021/10/15 09:42:31;;;;;;;2.30;1.60;;;;;;;;;;4367506;32;20089;-66
2021/10/15 09:45:15;;;;;;;3.80;1.92;;;;;;;;;;4379202;32;20603;-67
2021/10/15 09:47:52;;;;;;;2.20;1.50;;;;;;;;;;4355503;32;20077;-66
2021/10/15 09:50:21;;;;;;;2.95;1.90;;;;;;;;;;4343802;32;20440;-66
2021/10/15 09:52:52;;;;;;;3.30;1.65;;;;;;;;;;4357900;32;20070;-67
2021/10/15 09:55:18;;;;;;;2.30;1.90;;;;;;;;;;4372754;32;20061;-66
2021/10/15 09:57:50;;;;;;;3.28;1.80;;;;;;;;;;4396403;32;20516;-66
2021/10/15 10:00:18;;;;;;;2.40;1.70;;;;;;;;;;4343547;32;20556;-67
2021/10/15 10:02:45;;;;;;;2.60;1.70;;;;;;;;;;4354064;32;20511;-66
2021/10/15 10:05:13;;;;;;;3.00;1.90;;;;;;;;;;4379425;32;20496;-66
2021/10/15 10:07:44;;;;;;;3.45;2.10;;;;;;;;;;4366860;32;20077;-67
2021/10/15 10:10:16;;;;;;;3.95;1.50;;;;;;;;;;4354278;32;20074;-66
2021/10/15 10:12:44;;;;;;;3.17;1.90;;;;;;;;;;4354918;32;20092;-65
2021/10/15 10:15:15;;;;;;;1.77;1.30;;;;;;;;;;4354301;32;20066;-66
2021/10/15 10:18:11;;;;;;;3.28;1.62;;;;;;;;;;4342187;32;20151;-67
2021/10/15 10:20:51;;;;;;;4.55;1.77;;;;;;;;;;4368239;32;20093;-65
2021/10/15 10:23:29;;;;;;;3.22;1.73;;;;;;;;;;4381401;32;20078;-65
2021/10/15 10:25:57;;;;;;;1.83;1.48;;;;;;;;;;4366366;32;20089;-66
2021/10/15 10:28:24;;;;;;;2.60;1.40;;;;;;;;;;4354812;32;20077;-66
2021/10/15 10:30:56;;;;;;;5.55;1.80;;;;;;;;;;4366444;32;20518;-66
2021/10/15 10:33:26;;;;;;;1.75;1.62;;;;;;;;;;4366750;32;20085;-65
2021/10/15 10:35:53;;;;;;;2.85;1.70;;;;;;;;;;4354489;32;20123;-66
2021/10/15 10:38:21;;;;;;;1.62;1.50;;;;;;;;;;4366932;32;20077;-66
2021/10/15 10:41:00;;;;;;;1.90;1.67;;;;;;;;;;4366139;32;20069;-66
2021/10/15 10:43:45;;;;;;;4.53;1.60;;;;;;;;;;4366650;32;20451;-66
2021/10/15 10:46:12;;;;;;;2.30;1.52;;;;;;;;;;4379081;32;20455;-66
2021/10/15 10:48:51;;;;;;;1.45;1.27;;;;;;;;;;4366405;32;20486;-66
2021/10/15 10:51:26;;;;;;;3.72;1.83;;;;;;;;;;4378898;32;20175;-65
2021/10/15 10:54:03;;;;;;;1.67;1.50;;;;;;;;;;4366504;32;20096;-66
2021/10/15 10:56:52;;;;;;;3.83;1.98;;;;;;;;;;4365934;32;20058;-66
2021/10/15 10:59:19;;;;;;;1.98;1.48;;;;;;;;;;4354355;32;20074;-66
2021/10/15 11:01:46;;;;;;;1.50;1.25;;;;;;;;;;4392358;32;20062;-66
2021/10/15 11:04:35;;;;;;;2.00;1.40;;;;;;;;;;4378323;32;20449;-65
2021/10/15 11:07:28;;;;;;;2.87;2.15;;;;;;;;;;4366626;32;20517;-65
2021/10/15 11:10:03;;;;;;;2.47;1.70;;;;;;;;;;4375752;32;20464;-64
2021/10/15 11:12:29;;;;;;;3.15;1.62;;;;;;;;;;4366472;32;20062;-66
2021/10/15 11:15:06;;;;;;;3.62;1.80;;;;;;;;;;4365302;32;20097;-65
2021/10/15 11:17:37;;;;;;;3.58;1.37;;;;;;;;;;4366652;32;20066;-67
2021/10/15 11:20:10;;;;;;;1.98;1.50;;;;;;;;;;4378364;32;20472;-67
2021/10/15 11:22:38;;;;;;;2.12;1.40;;;;;;;;;;4365839;32;20452;-65
2021/10/15 11:25:06;;;;;;;2.25;1.50;;;;;;;;;;4353647;32;20511;-65
2021/10/15 11:27:32;;;;;;;3.42;1.58;;;;;;;;;;4353642;32;20067;-66
2021/10/15 11:30:00;;;;;;;3.00;1.65;;;;;;;;;;4366063;32;20081;-65
2021/10/15 11:32:40;;;;;;;3.05;1.62;;;;;;;;;;4341892;32;20058;-66
2021/10/15 11:35:07;;;;;;;3.83;1.80;;;;;;;;;;4367764;32;20077;-66
2021/10/15 11:37:54;;;;;;;3.20;1.62;;;;;;;;;;4378482;32;20133;-67
2021/10/15 11:40:25;;;;;;;3.50;1.80;;;;;;;;;;4365689;32;20158;-65
2021/10/15 11:42:52;;;;;;;2.90;2.03;;;;;;;;;;4378366;32;20089;-66
2021/10/15 11:45:22;;;;;;;7.07;1.70;;;;;;;;;;4366157;32;20443;-66
2021/10/15 11:48:02;;;;;;;2.42;1.73;;;;;;;;;;4377942;32;20086;-66
2021/10/15 11:50:36;;;;;;;2.37;1.85;;;;;;;;;;4378048;32;20089;-65
2021/10/15 11:53:02;;;;;;;4.10;1.83;;;;;;;;;;4353003;32;20093;-67
2021/10/15 11:55:35;;;;;;;2.50;1.60;;;;;;;;;;4365868;32;20077;-65
2021/10/15 11:58:33;;;;;;;4.62;2.03;;;;;;;;;;4354083;32;20150;-65
2021/10/15 12:01:22;;;;;;;3.08;2.22;;;;;;;;;;4379477;32;20093;-66
2021/10/15 12:03:50;;;;;;;5.55;2.55;;;;;;;;;;4377778;32;20089;-66
2021/10/15 12:06:23;;;;;;;2.53;1.90;;;;;;;;;;4365289;32;20109;-66
2021/10/15 12:08:56;;;;;;;2.53;1.90;;;;;;;;;;4365528;32;20092;-66
2021/10/15 12:11:37;;;;;;;5.30;1.95;;;;;;;;;;4364626;32;20068;-66
2021/10/15 12:14:08;;;;;;;2.53;1.80;;;;;;;;;;4377550;32;20070;-65
2021/10/15 12:16:49;;;;;;;1.30;1.20;;;;;;;;;;4365083;32;20074;-66
2021/10/15 12:19:46;;;;;;;3.42;1.50;;;;;;;;;;4365259;32;20068;-66
2021/10/15 12:22:20;;;;;;;1.35;1.20;;;;;;;;;;4363542;32;20069;-66
2021/10/15 12:24:54;;;;;;;2.80;1.62;;;;;;;;;;4352667;32;20453;-64
2021/10/15 12:27:33;;;;;;;3.70;1.58;;;;;;;;;;4340821;32;20073;-66
2021/10/15 12:30:01;;;;;;;3.00;1.73;;;;;;;;;;4364311;32;20628;-66
2021/10/15 12:32:38;;;;;;;3.28;1.95;;;;;;;;;;4355379;32;20078;-66
2021/10/15 12:35:25;;;;;;;1.12;1.02;;;;;;;;;;4354512;32;20593;-68
2021/10/15 12:37:51;;;;;;;2.47;1.62;;;;;;;;;;4353224;32;20162;-66
2021/10/15 12:40:30;;;;;;;3.17;1.77;;;;;;;;;;4377018;32;20085;-66
2021/10/15 12:42:57;;;;;;;2.28;1.65;;;;;;;;;;4377280;32;20088;-65
2021/10/15 12:45:28;;;;;;;2.90;1.45;;;;;;;;;;4364815;32;20086;-67
2021/10/15 12:47:59;;;;;;;4.75;2.10;;;;;;;;;;4352891;32;20074;-66
2021/10/15 12:50:27;;;;;;;2.85;1.60;;;;;;;;;;4352497;32;20062;-65
2021/10/15 12:52:53;;;;;;;1.92;1.80;;;;;;;;;;4352379;32;20529;-65
2021/10/15 12:55:25;;;;;;;2.58;1.60;;;;;;;;;;4352951;32;20441;-64
2021/10/15 12:58:01;;;;;;;2.12;1.77;;;;;;;;;;4377677;32;20154;-66
2021/10/15 13:00:28;;;;;;;2.95;1.70;;;;;;;;;;4353143;32;20074;-66
2021/10/15 13:03:05;;;;;;;3.03;1.75;;;;;;;;;;4364773;32;20144;-67
2021/10/15 13:05:32;;;;;;;3.22;1.95;;;;;;;;;;4341192;32;20170;-66
2021/10/15 13:07:58;;;;;;;3.33;2.10;;;;;;;;;;4352898;32;20169;-66
2021/10/15 13:10:25;;;;;;;3.53;2.00;;;;;;;;;;4354467;32;20533;-66
2021/10/15 13:12:52;;;;;;;3.97;1.80;;;;;;;;;;4365662;32;20070;-66
2021/10/15 13:15:20;;;;;;;2.50;1.85;;;;;;;;;;4376985;32;20070;-65
2021/10/15 13:17:50;;;;;;;4.82;1.87;;;;;;;;;;4352042;32;20074;-66
2021/10/15 13:20:17;;;;;;;2.92;1.90;;;;;;;;;;4365529;32;20451;-66
2021/10/15 13:22:43;;;;;;;2.55;1.73;;;;;;;;;;4364919;32;20089;-66
2021/10/15 13:25:10;;;;;;;3.03;1.75;;;;;;;;;;4364724;32;20089;-66
2021/10/15 13:27:38;;;;;;;2.90;1.65;;;;;;;;;;4352606;32;20073;-66
2021/10/15 13:30:06;;;;;;;2.72;1.60;;;;;;;;;;4352538;32;20137;-67
2021/10/15 13:32:32;;;;;;;2.55;1.62;;;;;;;;;;4364685;32;20080;-66
2021/10/15 13:34:59;;;;;;;3.17;1.92;;;;;;;;;;4364858;32;20078;-66
2021/10/15 13:37:28;;;;;;;2.72;2.00;;;;;;;;;;4377075;32;20308;-65
2021/10/15 13:39:58;;;;;;;3.62;2.15;;;;;;;;;;4380378;32;20163;-66
2021/10/15 13:47:45;;;;;;;3.30;1.90;;;;;;;;;;4369075;32;20067;-65
2021/10/15 13:50:12;;;;;;;4.55;2.42;;;;;;;;;;4368689;32;20089;-65
2021/10/15 13:52:38;;;;;;;3.58;2.10;;;;;;;;;;4342189;32;20078;-65
2021/10/15 13:55:10;;;;;;;3.05;2.12;;;;;;;;;;4354829;32;20078;-66
2021/10/15 13:57:39;;;;;;;3.62;2.05;;;;;;;;;;4368081;32;20099;-66
2021/10/15 14:00:10;;;;;;;1.70;1.58;;;;;;;;;;4355346;32;20089;-66
2021/10/15 14:02:41;;;;;;;3.08;1.95;;;;;;;;;;4355837;32;20178;-66
2021/10/15 14:05:07;;;;;;;2.97;1.90;;;;;;;;;;4355856;32;20503;-65
2021/10/15 14:07:34;;;;;;;3.03;2.10;;;;;;;;;;4367547;32;20078;-67
2021/10/15 14:10:01;;;;;;;2.90;1.87;;;;;;;;;;4379330;32;20159;-65
2021/10/15 14:12:27;;;;;;;4.55;2.30;;;;;;;;;;4354349;32;20081;-66
2021/10/15 14:14:55;;;;;;;2.80;2.05;;;;;;;;;;4354870;32;20153;-65
2021/10/15 14:17:22;;;;;;;4.53;2.33;;;;;;;;;;4366914;32;20144;-66
2021/10/15 14:19:50;;;;;;;3.67;2.40;;;;;;;;;;4367000;32;20074;-66
2021/10/15 14:22:16;;;;;;;3.92;2.47;;;;;;;;;;4342207;32;20204;-67
2021/10/15 14:24:43;;;;;;;5.07;2.28;;;;;;;;;;4366161;32;20112;-65
2021/10/15 14:27:09;;;;;;;3.47;2.47;;;;;;;;;;4342448;32;20078;-66
2021/10/15 14:29:36;;;;;;;4.40;2.53;;;;;;;;;;4354879;32;20082;-66
2021/10/15 14:32:04;;;;;;;3.62;2.10;;;;;;;;;;4355225;32;20091;-66
2021/10/15 14:34:30;;;;;;;2.30;1.92;;;;;;;;;;4356128;32;20097;-66
2021/10/15 14:36:57;;;;;;;4.72;2.70;;;;;;;;;;4367008;32;20527;-67
2021/10/15 14:39:24;;;;;;;3.20;2.22;;;;;;;;;;4378831;32;20542;-64
2021/10/15 14:41:50;;;;;;;3.95;2.10;;;;;;;;;;4366922;32;20508;-66
2021/10/15 14:44:17;;;;;;;3.85;2.30;;;;;;;;;;4354557;32;20166;-66
2021/10/15 14:46:45;;;;;;;2.80;2.25;;;;;;;;;;4366292;32;20093;-66
2021/10/15 14:49:12;;;;;;;4.72;2.20;;;;;;;;;;4367407;32;20584;-65
2021/10/15 14:51:40;;;;;;;4.85;2.00;;;;;;;;;;4366613;32;20108;-66
2021/10/15 14:54:07;;;;;;;4.43;2.22;;;;;;;;;;4354533;32;20088;-66
2021/10/15 14:56:34;;;;;;;2.95;1.92;;;;;;;;;;4353926;32;20082;-66
2021/10/15 14:59:00;;;;;;;2.03;1.70;;;;;;;;;;4342096;32;20247;-65
2021/10/15 15:01:27;;;;;;;3.30;2.28;;;;;;;;;;4378292;32;20081;-66
2021/10/15 15:03:56;;;;;;;2.80;2.00;;;;;;;;;;4353570;32;20086;-66
2021/10/15 15:06:23;;;;;;;5.53;2.42;;;;;;;;;;4366697;32;20141;-64
2021/10/15 15:08:49;;;;;;;5.28;2.08;;;;;;;;;;4378775;32;20078;-65
2021/10/15 15:11:17;;;;;;;6.15;2.40;;;;;;;;;;4382944;32;20081;-66
2021/10/15 15:13:43;;;;;;;4.40;2.22;;;;;;;;;;4370744;32;20093;-66